createdAt,value
2023-03-11T00:01:06.894Z,3.80
2023-03-11T00:07:49.624Z,3.10
2023-03-11T00:14:56.505Z,3.00
2023-03-11T00:21:46.826Z,3.20
2023-03-11T00:28:49.084Z,3.20
2023-03-11T00:35:36.793Z,2.50
2023-03-11T00:49:37.435Z,1.90
2023-03-11T00:56:15.013Z,1.80
2023-03-11T01:03:13.889Z,1.60
2023-03-11T01:10:04.336Z,1.90
2023-03-11T01:16:41.442Z,1.90
2023-03-11T01:23:01.732Z,2.30
2023-03-11T01:29:51.970Z,2.00
2023-03-11T01:36:25.272Z,2.00
2023-03-11T01:43:19.416Z,1.90
2023-03-11T01:50:21.253Z,2.20
2023-03-11T01:57:23.986Z,2.40
2023-03-11T02:04:19.375Z,2.10
2023-03-11T02:10:56.601Z,2.40
2023-03-11T02:17:39.921Z,2.20
2023-03-11T02:24:34.622Z,2.80
2023-03-11T02:31:37.654Z,2.10
2023-03-11T02:38:45.541Z,1.90
2023-03-11T02:45:52.541Z,2.50
2023-03-11T02:52:55.235Z,2.00
2023-03-11T02:59:58.374Z,2.50
2023-03-11T03:06:34.925Z,2.30
2023-03-11T03:13:09.390Z,2.80
2023-03-11T03:20:03.737Z,2.70
2023-03-11T03:26:35.224Z,2.70
2023-03-11T03:33:38.144Z,2.50
2023-03-11T03:40:24.390Z,2.60
2023-03-11T03:47:20.119Z,2.60
2023-03-11T03:54:09.298Z,2.40
2023-03-11T04:00:56.157Z,2.50
2023-03-11T04:07:58.019Z,3.30
2023-03-11T04:14:54.474Z,2.60
2023-03-11T04:21:45.497Z,2.20
2023-03-11T04:28:48.348Z,1.90
2023-03-11T04:35:53.158Z,2.20
2023-03-11T04:42:41.901Z,2.00
2023-03-11T04:49:48.216Z,2.20
2023-03-11T04:56:51.393Z,2.60
2023-03-11T05:03:45.352Z,2.20
2023-03-11T05:10:43.761Z,1.30
2023-03-11T05:17:39.439Z,1.70
2023-03-11T05:24:42.241Z,1.70
2023-03-11T05:31:45.112Z,1.80
2023-03-11T05:38:48.052Z,1.60
2023-03-11T05:45:43.696Z,1.50
2023-03-11T05:52:32.054Z,1.90
2023-03-11T05:59:47.455Z,2.00
2023-03-11T06:06:56.799Z,2.20
2023-03-11T06:13:42.311Z,1.90
2023-03-11T06:20:45.295Z,2.10
2023-03-11T06:27:13.309Z,2.10
2023-03-11T06:34:08.844Z,2.10
2023-03-11T06:41:13.486Z,2.50
2023-03-11T06:47:44.458Z,2.30
2023-03-11T06:54:34.799Z,2.30
2023-03-11T07:00:47.930Z,3.00
2023-03-11T07:07:14.557Z,2.60
2023-03-11T07:13:45.594Z,3.10
2023-03-11T07:20:06.478Z,3.40
2023-03-11T07:26:52.090Z,3.30
2023-03-11T07:33:35.365Z,3.70
2023-03-11T07:54:46.761Z,3.00
2023-03-11T08:00:57.612Z,3.50
2023-03-11T08:07:33.917Z,2.90
2023-03-11T08:14:31.027Z,3.90
2023-03-11T08:21:39.443Z,3.70
2023-03-11T08:28:20.964Z,4.20
2023-03-11T08:42:45.162Z,4.10
2023-03-11T08:49:32.089Z,4.10
2023-03-11T08:56:35.099Z,4.90
2023-03-11T09:03:43.848Z,4.70
2023-03-11T09:10:30.093Z,4.00
2023-03-11T09:17:09.274Z,4.40
2023-03-11T09:24:18.908Z,4.20
2023-03-11T09:31:06.754Z,4.60
2023-03-11T09:38:07.378Z,5.60
2023-03-11T09:45:52.346Z,5.50
2023-03-11T09:52:57.754Z,6.20
2023-03-11T09:59:53.055Z,4.60
2023-03-11T10:06:58.550Z,5.20
2023-03-11T10:14:02.517Z,4.30
2023-03-11T10:20:22.238Z,5.30
2023-03-11T10:27:36.111Z,4.50
2023-03-11T10:34:24.108Z,4.40
2023-03-11T10:41:04.984Z,4.40
2023-03-11T10:47:58.806Z,3.90
2023-03-11T10:54:44.846Z,4.70
2023-03-11T11:01:40.126Z,5.20
2023-03-11T11:07:58.987Z,4.40
2023-03-11T11:13:35.385Z,5.00
2023-03-11T11:19:30.815Z,4.50
2023-03-11T11:25:03.861Z,4.60
2023-03-11T11:31:09.232Z,5.50
2023-03-11T11:36:45.565Z,4.40
2023-03-11T11:42:04.143Z,4.30
2023-03-11T11:47:53.358Z,4.70
2023-03-11T11:53:59.781Z,4.60
2023-03-11T11:59:33.537Z,3.40
2023-03-11T12:05:43.557Z,3.70
2023-03-11T12:12:35.596Z,4.90
2023-03-11T12:19:19.381Z,4.80
2023-03-11T12:24:56.606Z,3.60
2023-03-11T12:30:48.906Z,5.40
2023-03-11T12:37:22.541Z,4.30
2023-03-11T12:42:45.583Z,3.50
2023-03-11T12:49:01.541Z,5.40
2023-03-11T12:56:03.741Z,4.70
2023-03-11T13:03:13.110Z,6.70
2023-03-11T13:09:31.828Z,4.40
2023-03-11T13:15:42.449Z,4.80
2023-03-11T13:21:25.639Z,4.40
2023-03-11T13:27:27.143Z,4.80
2023-03-11T13:33:34.549Z,4.70
2023-03-11T13:46:09.930Z,5.20
2023-03-11T13:52:36.755Z,6.20
2023-03-11T13:59:48.675Z,5.40
2023-03-11T14:06:35.654Z,4.90
2023-03-11T14:12:44.497Z,5.40
2023-03-11T14:19:20.640Z,5.80
2023-03-11T14:26:07.097Z,5.20
2023-03-11T14:33:40.064Z,5.10
2023-03-11T14:40:08.080Z,6.20
2023-03-11T14:47:04.920Z,5.10
2023-03-11T14:54:19.433Z,4.50
2023-03-11T15:00:36.013Z,4.20
2023-03-11T15:06:05.842Z,7.70
2023-03-11T15:13:13.365Z,5.60
2023-03-11T15:19:27.654Z,7.00
2023-03-11T15:24:35.993Z,6.40
2023-03-11T15:29:59.571Z,7.90
2023-03-11T15:36:04.814Z,6.90
2023-03-11T15:42:14.808Z,6.70
2023-03-11T15:49:21.461Z,7.00
2023-03-11T15:56:46.502Z,6.30
2023-03-11T16:04:00.555Z,6.20
2023-03-11T16:11:07.904Z,6.20
2023-03-11T16:18:12.307Z,6.30
2023-03-11T16:25:17.143Z,5.80
2023-03-11T16:32:07.318Z,6.00
2023-03-11T16:39:22.995Z,6.40
2023-03-11T16:46:37.716Z,5.50
2023-03-11T16:53:20.578Z,6.30
2023-03-11T17:07:37.573Z,7.00
2023-03-11T17:14:41.272Z,7.10
2023-03-11T17:21:47.821Z,5.90
2023-03-11T17:28:51.266Z,7.80
2023-03-11T17:35:47.688Z,6.80
2023-03-11T17:42:40.848Z,7.20
2023-03-11T17:49:46.667Z,7.10
2023-03-11T17:56:53.753Z,6.80
2023-03-11T18:04:16.122Z,7.80
2023-03-11T18:11:04.225Z,7.00
2023-03-11T18:18:00.736Z,7.60
2023-03-11T18:25:10.009Z,7.30
2023-03-11T18:32:10.315Z,7.40
2023-03-11T18:39:19.937Z,7.80
2023-03-11T18:52:24.376Z,7.70
2023-03-11T18:59:14.479Z,9.20
2023-03-11T19:05:54.733Z,7.60
2023-03-11T19:12:08.056Z,7.70
2023-03-11T19:18:32.581Z,7.40
2023-03-11T19:25:20.571Z,7.20
2023-03-11T19:31:38.486Z,7.00
2023-03-11T19:38:05.208Z,8.90
2023-03-11T19:45:07.886Z,8.90
2023-03-11T19:52:18.001Z,9.10
2023-03-11T19:58:39.387Z,7.90
2023-03-11T20:05:04.382Z,8.20
2023-03-11T20:11:13.759Z,8.50
2023-03-11T20:18:20.732Z,8.50
2023-03-11T20:25:02.078Z,8.40
2023-03-11T20:31:12.925Z,8.90
2023-03-11T20:37:25.114Z,10.40
2023-03-11T20:43:27.070Z,8.50
2023-03-11T20:49:34.892Z,7.60
2023-03-11T20:55:56.533Z,8.70
2023-03-11T21:03:06.065Z,10.70
2023-03-11T21:09:40.376Z,11.10
2023-03-11T21:15:52.816Z,10.60
2023-03-11T21:22:00.119Z,8.70
2023-03-11T21:27:27.860Z,9.50
2023-03-11T21:32:54.253Z,10.80
2023-03-11T21:38:32.067Z,10.10
2023-03-11T21:43:58.263Z,8.70
2023-03-11T21:49:18.485Z,9.80
2023-03-11T21:54:24.690Z,10.30
2023-03-11T22:00:05.871Z,9.00
2023-03-11T22:05:49.782Z,10.30
2023-03-11T22:11:20.925Z,9.30
2023-03-11T22:17:39.700Z,9.60
2023-03-11T22:23:38.797Z,10.30
2023-03-11T22:29:21.842Z,7.60
2023-03-11T22:36:12.567Z,10.30
2023-03-11T22:43:19.368Z,13.20
2023-03-11T22:50:41.810Z,11.90
2023-03-11T22:57:45.428Z,12.20
2023-03-11T23:03:58.675Z,11.20
2023-03-11T23:10:28.791Z,12.50
2023-03-11T23:16:16.354Z,9.30
2023-03-11T23:22:18.926Z,9.80
2023-03-11T23:29:05.641Z,11.00
2023-03-11T23:35:25.733Z,11.10
2023-03-11T23:41:43.206Z,10.90
2023-03-11T23:48:00.914Z,11.40
2023-03-11T23:54:48.862Z,11.50
